createdAt,value
2023-02-04T00:00:39.047Z,103033.19
2023-02-04T00:03:07.619Z,103035.66
2023-02-04T00:05:35.939Z,103042.00
2023-02-04T00:08:07.240Z,103045.41
2023-02-04T00:10:35.596Z,103064.34
2023-02-04T00:13:04.254Z,103069.28
2023-02-04T00:15:32.654Z,103072.56
2023-02-04T00:18:02.399Z,103078.22
2023-02-04T00:20:31.235Z,103074.25
2023-02-04T00:22:59.519Z,103088.81
2023-02-04T00:25:27.898Z,103088.19
2023-02-04T00:27:56.429Z,103093.38
2023-02-04T00:30:24.740Z,103093.19
2023-02-04T00:32:55.157Z,103095.22
2023-02-04T00:35:25.936Z,103083.25
2023-02-04T00:37:54.156Z,103082.03
2023-02-04T00:40:22.349Z,103092.03
2023-02-04T00:42:50.729Z,103101.84
2023-02-04T00:45:18.976Z,103105.47
2023-02-04T00:47:47.385Z,103113.22
2023-02-04T00:50:15.728Z,103124.91
2023-02-04T00:52:45.539Z,103126.72
2023-02-04T00:55:16.083Z,103142.47
2023-02-04T00:57:44.717Z,103138.66
2023-02-04T01:00:14.332Z,103139.09
2023-02-04T01:02:43.097Z,103148.84
2023-02-04T01:05:11.622Z,103155.03
2023-02-04T01:07:39.915Z,103169.59
2023-02-04T01:10:10.070Z,103161.69
2023-02-04T01:12:40.058Z,103162.38
2023-02-04T01:15:09.155Z,103176.53
2023-02-04T01:17:39.953Z,103163.09
2023-02-04T01:20:09.225Z,103182.25
2023-02-04T01:22:37.573Z,103178.44
2023-02-04T01:25:06.793Z,103197.41
2023-02-04T01:27:36.649Z,103197.16
2023-02-04T01:30:05.370Z,103184.06
2023-02-04T01:32:33.710Z,103203.00
2023-02-04T01:35:02.092Z,103204.59
2023-02-04T01:37:30.340Z,103207.41
2023-02-04T01:39:59.426Z,103213.84
2023-02-04T01:42:28.240Z,103233.16
2023-02-04T01:44:57.879Z,103224.22
2023-02-04T01:47:29.494Z,103241.13
2023-02-04T01:50:00.147Z,103241.38
2023-02-04T01:52:30.669Z,103249.72
2023-02-04T01:54:59.323Z,103254.44
2023-02-04T01:57:27.684Z,103252.44
2023-02-04T01:59:58.322Z,103254.53
2023-02-04T02:02:42.123Z,103268.84
2023-02-04T02:05:13.548Z,103273.59
2023-02-04T02:07:42.246Z,103276.50
2023-02-04T02:10:13.340Z,103281.47
2023-02-04T02:12:42.792Z,103286.31
2023-02-04T02:15:14.072Z,103291.16
2023-02-04T02:17:42.648Z,103289.34
2023-02-04T02:20:13.309Z,103298.69
2023-02-04T02:22:52.162Z,103297.94
2023-02-04T02:25:22.619Z,103309.75
2023-02-04T02:27:51.221Z,103314.09
2023-02-04T02:30:20.482Z,103322.69
2023-02-04T02:32:50.149Z,103324.00
2023-02-04T02:35:19.037Z,103337.97
2023-02-04T02:37:47.163Z,103344.97
2023-02-04T02:40:16.372Z,103348.59
2023-02-04T02:42:49.854Z,103357.63
2023-02-04T02:45:23.925Z,103352.28
2023-02-04T02:47:52.810Z,103363.53
2023-02-04T02:50:25.162Z,103376.25
2023-02-04T02:52:53.591Z,103383.91
2023-02-04T02:55:24.356Z,103388.16
2023-02-04T02:57:55.951Z,103388.91
2023-02-04T03:00:26.769Z,103398.50
2023-02-04T03:03:00.157Z,103407.72
2023-02-04T03:05:30.619Z,103417.81
2023-02-04T03:07:58.939Z,103394.75
2023-02-04T03:10:27.646Z,103426.78
2023-02-04T03:12:57.621Z,103430.81
2023-02-04T03:15:26.147Z,103432.59
2023-02-04T03:17:56.853Z,103434.97
2023-02-04T03:20:26.508Z,103437.63
2023-02-04T03:22:55.797Z,103437.63
2023-02-04T03:25:26.646Z,103442.34
2023-02-04T03:27:56.663Z,103447.50
2023-02-04T03:30:26.585Z,103458.94
2023-02-04T03:32:55.313Z,103467.44
2023-02-04T03:35:23.490Z,103464.84
2023-02-04T03:37:52.100Z,103473.41
2023-02-04T03:40:20.870Z,103465.38
2023-02-04T03:42:49.255Z,103478.59
2023-02-04T03:45:19.140Z,103486.88
2023-02-04T03:47:47.755Z,103491.56
2023-02-04T03:50:16.543Z,103505.28
2023-02-04T03:52:45.372Z,103497.81
2023-02-04T03:55:14.013Z,103511.38
2023-02-04T03:57:42.334Z,103519.25
2023-02-04T04:00:11.779Z,103517.16
2023-02-04T04:02:42.604Z,103517.94
2023-02-04T04:05:11.562Z,103517.47
2023-02-04T04:07:39.806Z,103535.88
2023-02-04T04:10:08.820Z,103537.16
2023-02-04T04:12:36.997Z,103544.94
2023-02-04T04:15:06.055Z,103556.97
2023-02-04T04:17:34.463Z,103562.25
2023-02-04T04:20:04.164Z,103562.06
2023-02-04T04:22:32.223Z,103581.44
2023-02-04T04:25:00.781Z,103584.81
2023-02-04T04:27:30.220Z,103599.81
2023-02-04T04:29:58.778Z,103594.63
2023-02-04T04:32:27.593Z,103595.69
2023-02-04T04:34:55.782Z,103593.88
2023-02-04T04:37:25.475Z,103603.97
2023-02-04T04:39:53.991Z,103608.88
2023-02-04T04:42:22.395Z,103612.78
2023-02-04T04:44:50.877Z,103612.91
2023-02-04T04:47:19.805Z,103623.78
2023-02-04T04:49:47.980Z,103628.03
2023-02-04T04:52:18.852Z,103639.03
2023-02-04T04:54:50.346Z,103640.97
2023-02-04T04:57:18.603Z,103639.66
2023-02-04T04:59:46.732Z,103638.88
2023-02-04T05:02:15.166Z,103638.88
2023-02-04T05:04:43.454Z,103636.72
2023-02-04T05:07:11.570Z,103649.50
2023-02-04T05:09:40.030Z,103651.31
2023-02-04T05:12:09.534Z,103644.84
2023-02-04T05:14:37.874Z,103645.22
2023-02-04T05:17:06.257Z,103646.91
2023-02-04T05:19:34.507Z,103661.41
2023-02-04T05:22:02.975Z,103658.06
2023-02-04T05:24:31.517Z,103653.53
2023-02-04T05:26:59.725Z,103662.72
2023-02-04T05:29:29.596Z,103658.44
2023-02-04T05:31:58.073Z,103668.66
2023-02-04T05:34:26.173Z,103668.81
2023-02-04T05:36:54.467Z,103661.44
2023-02-04T05:39:25.677Z,103645.13
2023-02-04T05:41:53.803Z,103650.53
2023-02-04T05:44:22.052Z,103679.53
2023-02-04T05:46:52.010Z,103672.28
2023-02-04T05:49:20.143Z,103686.75
2023-02-04T05:51:51.293Z,103687.16
2023-02-04T05:54:20.883Z,103698.63
2023-02-04T05:56:49.649Z,103695.00
2023-02-04T05:59:17.890Z,103677.88
2023-02-04T06:01:46.242Z,103702.47
2023-02-04T06:04:16.742Z,103705.22
2023-02-04T06:06:45.492Z,103712.78
2023-02-04T06:09:14.527Z,103698.78
2023-02-04T06:11:42.741Z,103725.97
2023-02-04T06:14:11.393Z,103723.63
2023-02-04T06:16:39.740Z,103724.25
2023-02-04T06:19:07.965Z,103742.50
2023-02-04T06:21:37.625Z,103740.97
2023-02-04T06:24:06.800Z,103739.69
2023-02-04T06:26:34.923Z,103739.69
2023-02-04T06:29:03.333Z,103744.59
2023-02-04T06:31:32.217Z,103748.72
2023-02-04T06:34:00.548Z,103766.81
2023-02-04T06:36:30.554Z,103758.00
2023-02-04T06:39:00.293Z,103761.03
2023-02-04T06:41:28.526Z,103774.78
2023-02-04T06:43:56.841Z,103775.00
2023-02-04T06:46:25.086Z,103770.34
2023-02-04T06:48:53.187Z,103775.78
2023-02-04T06:51:21.501Z,103788.56
2023-02-04T06:53:50.230Z,103778.78
2023-02-04T06:56:19.864Z,103787.41
2023-02-04T06:58:48.118Z,103784.31
2023-02-04T07:01:16.525Z,103793.84
2023-02-04T07:03:44.684Z,103797.22
2023-02-04T07:06:12.992Z,103798.56
2023-02-04T07:08:41.344Z,103802.81
2023-02-04T07:11:09.603Z,103781.13
2023-02-04T07:13:39.722Z,103818.41
2023-02-04T07:16:08.821Z,103815.31
2023-02-04T07:18:37.072Z,103812.47
2023-02-04T07:21:05.602Z,103817.44
2023-02-04T07:23:33.856Z,103823.00
2023-02-04T07:26:02.513Z,103824.84
2023-02-04T07:28:31.628Z,103816.31
2023-02-04T07:31:01.434Z,103822.31
2023-02-04T07:33:29.778Z,103829.28
2023-02-04T07:35:58.049Z,103844.78
2023-02-04T07:38:26.382Z,103815.59
2023-02-04T07:40:55.255Z,103840.72
2023-02-04T07:43:24.243Z,103848.47
2023-02-04T07:45:52.593Z,103847.41
2023-02-04T07:48:22.472Z,103849.56
2023-02-04T07:50:50.865Z,103859.91
2023-02-04T07:53:19.438Z,103848.03
2023-02-04T07:55:47.932Z,103855.13
2023-02-04T07:58:16.800Z,103847.88
2023-02-04T08:00:45.281Z,103857.25
2023-02-04T08:03:13.336Z,103855.22
2023-02-04T08:05:43.214Z,103861.41
2023-02-04T08:08:11.653Z,103867.16
2023-02-04T08:10:41.626Z,103872.28
2023-02-04T08:13:09.747Z,103876.81
2023-02-04T08:15:38.117Z,103874.41
2023-02-04T08:18:06.398Z,103875.66
2023-02-04T08:20:34.796Z,103881.69
2023-02-04T08:23:05.150Z,103883.44
2023-02-04T08:25:33.347Z,103889.53
2023-02-04T08:28:02.036Z,103895.00
2023-02-04T08:30:30.972Z,103890.44
2023-02-04T08:32:59.846Z,103897.56
2023-02-04T08:35:28.145Z,103907.13
2023-02-04T08:37:56.538Z,103911.63
2023-02-04T08:40:26.172Z,103910.25
2023-02-04T08:42:54.454Z,103916.34
2023-02-04T08:45:22.775Z,103919.69
2023-02-04T08:47:50.961Z,103917.44
2023-02-04T08:50:19.326Z,103929.19
2023-02-04T08:52:47.550Z,103922.13
2023-02-04T08:55:16.347Z,103917.16
2023-02-04T08:57:45.931Z,103942.81
2023-02-04T09:00:15.450Z,103936.81
2023-02-04T09:02:43.713Z,103943.59
2023-02-04T09:05:11.816Z,103955.22
2023-02-04T09:07:39.952Z,103958.03
2023-02-04T09:10:08.628Z,103956.19
2023-02-04T09:12:37.135Z,103927.66
2023-02-04T09:15:07.327Z,103948.50
2023-02-04T09:17:35.971Z,103936.06
2023-02-04T09:20:04.291Z,103931.28
2023-02-04T09:22:32.614Z,103947.72
2023-02-04T09:25:01.034Z,103954.38
2023-02-04T09:27:29.374Z,103961.06
2023-02-04T09:29:57.771Z,103940.66
2023-02-04T09:32:28.576Z,103966.00
2023-02-04T09:34:57.054Z,103965.69
2023-02-04T09:37:30.102Z,103967.78
2023-02-04T09:39:58.783Z,103972.97
2023-02-04T09:42:28.094Z,103958.56
2023-02-04T09:44:56.475Z,103963.78
2023-02-04T09:47:29.030Z,103970.59
2023-02-04T09:50:00.856Z,103975.34
2023-02-04T09:52:30.050Z,103969.13
2023-02-04T09:54:58.449Z,103970.06
2023-02-04T09:57:27.188Z,103966.66
2023-02-04T09:59:56.640Z,103976.69
2023-02-04T10:02:27.335Z,103978.84
2023-02-04T10:04:59.464Z,103982.19
2023-02-04T10:07:30.614Z,103975.81
2023-02-04T10:10:00.410Z,103980.94
2023-02-04T10:12:29.390Z,103986.69
2023-02-04T10:14:58.638Z,103974.28
2023-02-04T10:17:27.590Z,103977.03
2023-02-04T10:19:58.271Z,103964.81
2023-02-04T10:22:27.545Z,103963.50
2023-02-04T10:24:55.989Z,103968.00
2023-02-04T10:27:25.270Z,103964.53
2023-02-04T10:30:00.450Z,103978.75
2023-02-04T10:32:34.123Z,103971.78
2023-02-04T10:35:05.838Z,103976.66
2023-02-04T10:37:34.203Z,103980.78
2023-02-04T10:40:03.195Z,103987.03
2023-02-04T10:42:33.520Z,103982.19
2023-02-04T10:45:01.892Z,103979.75
2023-02-04T10:47:31.975Z,103984.19
2023-02-04T10:50:05.005Z,103987.06
2023-02-04T10:52:39.394Z,103980.56
2023-02-04T10:55:12.479Z,103993.25
2023-02-04T10:57:42.684Z,103991.25
2023-02-04T11:00:20.360Z,103990.19
2023-02-04T11:02:53.745Z,103997.44
2023-02-04T11:05:25.928Z,103993.25
2023-02-04T11:07:54.556Z,104002.34
2023-02-04T11:10:24.896Z,103996.88
2023-02-04T11:13:03.484Z,104010.91
2023-02-04T11:15:50.582Z,104023.88
2023-02-04T11:18:31.368Z,104016.94
2023-02-04T11:21:01.416Z,104012.53
2023-02-04T11:23:36.562Z,104017.84
2023-02-04T11:26:08.677Z,104012.25
2023-02-04T11:28:59.257Z,103993.06
2023-02-04T11:31:57.133Z,104025.50
2023-02-04T11:34:33.207Z,104022.66
2023-02-04T11:37:30.293Z,104021.06
2023-02-04T11:40:02.425Z,104013.06
2023-02-04T11:42:41.310Z,104012.00
2023-02-04T11:45:17.285Z,104022.38
2023-02-04T11:47:46.938Z,104019.78
2023-02-04T11:50:20.290Z,104011.22
2023-02-04T11:52:50.152Z,104013.56
2023-02-04T11:55:20.298Z,104004.75
2023-02-04T11:57:53.169Z,104006.31
2023-02-04T12:00:23.379Z,103996.44
2023-02-04T12:02:56.701Z,104001.88
2023-02-04T12:05:37.679Z,104009.69
2023-02-04T12:08:28.046Z,104009.69
2023-02-04T12:11:07.562Z,104010.22
2023-02-04T12:13:36.461Z,104006.31
2023-02-04T12:16:07.309Z,104001.75
2023-02-04T12:18:36.932Z,104001.03
2023-02-04T12:21:05.726Z,103999.00
2023-02-04T12:23:35.281Z,104005.84
2023-02-04T12:26:06.902Z,104000.78
2023-02-04T12:28:36.938Z,103997.22
2023-02-04T12:31:05.469Z,103998.47
2023-02-04T12:33:33.823Z,104000.53
2023-02-04T12:36:03.968Z,104005.44
2023-02-04T12:38:32.070Z,103994.06
2023-02-04T12:41:01.674Z,104004.69
2023-02-04T12:43:30.129Z,103991.69
2023-02-04T12:45:58.614Z,104005.72
2023-02-04T12:48:27.754Z,103994.53
2023-02-04T12:50:56.188Z,103996.13
2023-02-04T12:53:24.292Z,104003.66
2023-02-04T12:55:52.485Z,104009.63
2023-02-04T12:58:22.202Z,104008.06
2023-02-04T13:00:50.671Z,104003.88
2023-02-04T13:03:19.255Z,104002.56
2023-02-04T13:05:47.650Z,103983.09
2023-02-04T13:08:15.685Z,103994.81
2023-02-04T13:10:44.122Z,103980.06
2023-02-04T13:13:12.351Z,103987.81
2023-02-04T13:15:41.822Z,103993.22
2023-02-04T13:18:10.210Z,103991.44
2023-02-04T13:20:38.621Z,103988.03
2023-02-04T13:23:06.998Z,103982.09
2023-02-04T13:25:35.536Z,103989.59
2023-02-04T13:28:03.961Z,103991.94
2023-02-04T13:30:32.324Z,103987.00
2023-02-04T13:33:01.983Z,103979.41
2023-02-04T13:35:30.702Z,103991.31
2023-02-04T13:37:59.174Z,103980.66
2023-02-04T13:40:27.472Z,103988.97
2023-02-04T13:42:55.735Z,103991.78
2023-02-04T13:45:23.910Z,103988.88
2023-02-04T13:47:52.537Z,103983.28
2023-02-04T13:50:22.400Z,103988.97
2023-02-04T13:52:50.591Z,103987.19
2023-02-04T13:55:18.697Z,103989.28
2023-02-04T13:57:46.903Z,103986.41
2023-02-04T14:00:15.897Z,103979.69
2023-02-04T14:02:44.132Z,103983.03
2023-02-04T14:05:12.554Z,103988.25
2023-02-04T14:07:42.706Z,103988.63
2023-02-04T14:10:11.479Z,103979.91
2023-02-04T14:12:41.956Z,103985.59
2023-02-04T14:15:11.087Z,103983.16
2023-02-04T14:17:39.180Z,103982.78
2023-02-04T14:20:08.238Z,103983.56
2023-02-04T14:22:36.452Z,103971.03
2023-02-04T14:25:06.994Z,103981.69
2023-02-04T14:27:35.619Z,103977.75
2023-02-04T14:30:03.897Z,103983.28
2023-02-04T14:32:31.961Z,103990.50
2023-02-04T14:35:02.999Z,103977.50
2023-02-04T14:37:31.381Z,103980.66
2023-02-04T14:39:59.508Z,103979.03
2023-02-04T14:42:32.602Z,103975.38
2023-02-04T14:45:00.721Z,103980.31
2023-02-04T14:47:29.365Z,103987.56
2023-02-04T14:49:57.870Z,103982.56
2023-02-04T14:52:29.040Z,103987.09
2023-02-04T14:54:59.853Z,103989.38
2023-02-04T14:57:30.329Z,103996.63
2023-02-04T15:00:01.058Z,104000.25
2023-02-04T15:02:32.593Z,103997.78
2023-02-04T15:05:01.179Z,104008.59
2023-02-04T15:07:29.668Z,103999.13
2023-02-04T15:09:58.129Z,103997.97
2023-02-04T15:12:26.880Z,103999.78
2023-02-04T15:14:57.063Z,103997.22
2023-02-04T15:17:31.364Z,104006.56
2023-02-04T15:20:00.563Z,104001.38
2023-02-04T15:22:31.781Z,103992.28
2023-02-04T15:25:00.059Z,103997.53
2023-02-04T15:27:29.747Z,103991.44
2023-02-04T15:30:02.690Z,103990.72
2023-02-04T15:32:33.269Z,103979.44
2023-02-04T15:35:02.702Z,103980.91
2023-02-04T15:37:31.068Z,103988.66
2023-02-04T15:40:00.770Z,103968.41
2023-02-04T15:42:29.773Z,103953.75
2023-02-04T15:44:58.149Z,103966.66
2023-02-04T15:47:28.153Z,103966.50
2023-02-04T15:49:58.856Z,103959.88
2023-02-04T15:52:30.643Z,103962.78
2023-02-04T15:55:01.796Z,103963.00
2023-02-04T15:57:31.031Z,103974.97
2023-02-04T16:00:02.161Z,103974.22
2023-02-04T16:02:31.962Z,103970.09
2023-02-04T16:05:00.985Z,103971.41
2023-02-04T16:07:29.515Z,103979.75
2023-02-04T16:09:58.058Z,103980.13
2023-02-04T16:12:26.595Z,103984.97
2023-02-04T16:14:55.070Z,103987.28
2023-02-04T16:17:23.171Z,103987.28
2023-02-04T16:19:53.121Z,103991.72
2023-02-04T16:22:22.457Z,103997.19
2023-02-04T16:24:52.978Z,103983.41
2023-02-04T16:27:21.854Z,103983.69
2023-02-04T16:29:56.990Z,103984.16
2023-02-04T16:32:27.990Z,103982.09
2023-02-04T16:35:00.714Z,103992.50
2023-02-04T16:37:32.990Z,103987.56
2023-02-04T16:40:01.722Z,103990.72
2023-02-04T16:42:31.479Z,103985.66
2023-02-04T16:44:59.905Z,103988.63
2023-02-04T16:47:28.298Z,103988.16
2023-02-04T16:50:01.037Z,103988.63
2023-02-04T16:52:30.076Z,103994.88
2023-02-04T16:54:58.726Z,103994.75
2023-02-04T16:57:27.058Z,104001.38
2023-02-04T16:59:55.598Z,103998.00
2023-02-04T17:02:26.501Z,104005.28
2023-02-04T17:04:54.637Z,104007.06
2023-02-04T17:07:24.702Z,103994.91
2023-02-04T17:09:53.099Z,104009.94
2023-02-04T17:12:22.663Z,104010.69
2023-02-04T17:14:51.147Z,104000.59
2023-02-04T17:17:19.417Z,103994.63
2023-02-04T17:19:47.516Z,104003.44
2023-02-04T17:22:15.950Z,104000.09
2023-02-04T17:24:45.597Z,103993.84
2023-02-04T17:27:14.298Z,103992.16
2023-02-04T17:29:42.673Z,104002.16
2023-02-04T17:32:12.664Z,104006.03
2023-02-04T17:34:40.854Z,103993.06
2023-02-04T17:37:09.128Z,103988.66
2023-02-04T17:39:37.492Z,103999.16
2023-02-04T17:42:10.016Z,103994.88
2023-02-04T17:44:40.390Z,103999.50
2023-02-04T17:47:14.879Z,103999.91
2023-02-04T17:49:43.593Z,103987.84
2023-02-04T17:52:12.041Z,103984.78
2023-02-04T17:54:40.444Z,103988.25
2023-02-04T17:57:20.478Z,103985.78
2023-02-04T17:59:51.610Z,103991.59
2023-02-04T18:02:28.785Z,103981.88
2023-02-04T18:05:01.003Z,103978.53
2023-02-04T18:07:32.757Z,103975.28
2023-02-04T18:10:12.386Z,103975.91
2023-02-04T18:12:42.042Z,103977.72
2023-02-04T18:15:24.853Z,103974.59
2023-02-04T18:17:54.544Z,103971.25
2023-02-04T18:20:22.940Z,103977.72
2023-02-04T18:22:55.013Z,103974.88
2023-02-04T18:25:24.097Z,103970.97
2023-02-04T18:27:54.303Z,103979.28
2023-02-04T18:30:26.700Z,103966.69
2023-02-04T18:32:55.949Z,103956.59
2023-02-04T18:35:40.414Z,103961.41
2023-02-04T18:38:22.562Z,103949.50
2023-02-04T18:40:51.645Z,103950.00
2023-02-04T18:43:27.520Z,103929.25
2023-02-04T18:45:58.069Z,103934.97
2023-02-04T18:49:13.689Z,103933.41
2023-02-04T18:51:45.366Z,103919.69
2023-02-04T18:54:27.704Z,103927.09
2023-02-04T18:57:04.807Z,103911.91
2023-02-04T18:59:34.494Z,103921.75
2023-02-04T19:02:03.354Z,103923.03
2023-02-04T19:04:35.190Z,103904.13
2023-02-04T19:07:03.482Z,103902.31
2023-02-04T19:09:38.639Z,103919.69
2023-02-04T19:12:19.652Z,103924.88
2023-02-04T19:14:50.096Z,103923.31
2023-02-04T19:17:27.223Z,103923.84
2023-02-04T19:20:00.015Z,103916.94
2023-02-04T19:22:45.098Z,103904.91
2023-02-04T19:25:34.084Z,103888.84
2023-02-04T19:28:04.367Z,103889.31
2023-02-04T19:30:45.155Z,103901.53
2023-02-04T19:33:18.564Z,103905.44
2023-02-04T19:35:49.074Z,103903.31
2023-02-04T19:38:38.952Z,103899.44
2023-02-04T19:41:25.952Z,103892.31
2023-02-04T19:43:59.262Z,103874.66
2023-02-04T19:46:30.381Z,103857.66
2023-02-04T19:48:58.645Z,103835.69
2023-02-04T19:51:29.851Z,103867.28
2023-02-04T19:54:03.161Z,103870.44
2023-02-04T19:56:36.237Z,103879.97
2023-02-04T19:59:27.773Z,103882.06
2023-02-04T20:02:03.793Z,103875.34
2023-02-04T20:04:37.378Z,103872.09
2023-02-04T20:07:19.123Z,103865.94
2023-02-04T20:09:47.506Z,103860.75
2023-02-04T20:12:17.498Z,103863.25
2023-02-04T20:14:54.393Z,103867.78
2023-02-04T20:17:35.180Z,103882.56
2023-02-04T20:20:20.481Z,103884.69
2023-02-04T20:22:50.787Z,103884.69
2023-02-04T20:25:47.347Z,103872.75
2023-02-04T20:28:22.491Z,103868.09
2023-02-04T20:30:52.547Z,103866.66
2023-02-04T20:33:32.962Z,103874.81
2023-02-04T20:36:46.520Z,103870.06
2023-02-04T20:39:37.154Z,103868.59
2023-02-04T20:42:36.734Z,103852.56
2023-02-04T20:45:18.571Z,103840.88
2023-02-04T20:47:57.842Z,103835.16
2023-02-04T20:50:38.297Z,103837.75
2023-02-04T20:53:23.612Z,103827.91
2023-02-04T20:55:54.670Z,103813.66
2023-02-04T20:58:24.335Z,103817.03
2023-02-04T21:00:54.350Z,103809.75
2023-02-04T21:03:31.039Z,103805.59
2023-02-04T21:06:02.169Z,103776.47
2023-02-04T21:08:37.572Z,103800.44
2023-02-04T21:11:06.787Z,103795.72
2023-02-04T21:13:35.420Z,103791.09
2023-02-04T21:16:04.880Z,103805.63
2023-02-04T21:18:34.875Z,103793.69
2023-02-04T21:21:07.585Z,103805.91
2023-02-04T21:23:36.257Z,103803.31
2023-02-04T21:26:04.997Z,103772.19
2023-02-04T21:28:33.402Z,103786.19
2023-02-04T21:31:02.357Z,103790.72
2023-02-04T21:33:30.575Z,103787.97
2023-02-04T21:36:01.082Z,103789.06
2023-02-04T21:38:31.024Z,103783.69
2023-02-04T21:41:02.502Z,103789.41
2023-02-04T21:43:33.786Z,103792.66
2023-02-04T21:46:05.245Z,103790.06
2023-02-04T21:48:33.474Z,103778.63
2023-02-04T21:51:01.754Z,103786.13
2023-02-04T21:53:33.754Z,103783.28
2023-02-04T21:56:05.087Z,103795.06
2023-02-04T21:58:33.460Z,103799.13
2023-02-04T22:01:02.306Z,103793.94
2023-02-04T22:03:33.607Z,103800.41
2023-02-04T22:06:02.802Z,103793.94
2023-02-04T22:08:32.622Z,103785.88
2023-02-04T22:11:01.243Z,103788.72
2023-02-04T22:13:31.929Z,103783.66
2023-02-04T22:16:01.942Z,103786.34
2023-02-04T22:18:30.404Z,103793.38
2023-02-04T22:20:58.874Z,103766.69
2023-02-04T22:23:27.299Z,103776.75
2023-02-04T22:25:56.973Z,103765.06
2023-02-04T22:28:25.445Z,103754.72
2023-02-04T22:30:54.368Z,103753.06
2023-02-04T22:33:22.718Z,103747.28
2023-02-04T22:35:51.077Z,103738.22
2023-02-04T22:38:21.156Z,103736.63
2023-02-04T22:40:50.211Z,103725.06
2023-02-04T22:43:19.779Z,103724.69
2023-02-04T22:45:48.040Z,103718.53
2023-02-04T22:48:16.992Z,103704.28
2023-02-04T22:50:45.677Z,103711.13
2023-02-04T22:53:14.140Z,103708.22
2023-02-04T22:55:42.673Z,103715.91
2023-02-04T22:58:11.343Z,103713.59
2023-02-04T23:00:42.135Z,103702.09
2023-02-04T23:03:10.402Z,103714.84
2023-02-04T23:05:39.057Z,103718.56
2023-02-04T23:08:08.159Z,103707.16
2023-02-04T23:10:38.861Z,103697.84
2023-02-04T23:13:10.796Z,103694.75
2023-02-04T23:15:40.612Z,103699.94
2023-02-04T23:18:08.775Z,103680.50
2023-02-04T23:20:38.183Z,103686.16
2023-02-04T23:23:07.205Z,103688.47
2023-02-04T23:25:36.779Z,103663.88
2023-02-04T23:28:05.257Z,103650.41
2023-02-04T23:30:34.175Z,103654.00
2023-02-04T23:33:04.032Z,103641.66
2023-02-04T23:35:33.149Z,103645.94
2023-02-04T23:38:03.107Z,103637.50
2023-02-04T23:40:31.436Z,103630.66
2023-02-04T23:43:02.816Z,103631.13
2023-02-04T23:45:31.387Z,103639.03
2023-02-04T23:48:00.343Z,103640.16
2023-02-04T23:50:30.406Z,103628.31
2023-02-04T23:53:01.963Z,103621.69
2023-02-04T23:55:33.780Z,103602.16
2023-02-04T23:58:02.511Z,103610.97
